sensor_id;sensor_type;location;lat;lon;timestamp;P1;durP1;ratioP1;P2;durP2;ratioP2
38783;SDS011;24531;45.502;12.238;2022-07-22T00:01:33;8.13;;;3.92;;
38783;SDS011;24531;45.502;12.238;2022-07-22T00:03:59;9.65;;;4.63;;
38783;SDS011;24531;45.502;12.238;2022-07-22T00:06:26;7.43;;;4.50;;
38783;SDS011;24531;45.502;12.238;2022-07-22T00:08:53;10.93;;;4.43;;
38783;SDS011;24531;45.502;12.238;2022-07-22T00:11:19;6.65;;;4.97;;
38783;SDS011;24531;45.502;12.238;2022-07-22T00:13:44;7.93;;;4.43;;
38783;SDS011;24531;45.502;12.238;2022-07-22T00:16:11;5.78;;;4.13;;
38783;SDS011;24531;45.502;12.238;2022-07-22T00:18:36;8.52;;;4.25;;
38783;SDS011;24531;45.502;12.238;2022-07-22T00:21:02;5.40;;;4.25;;
38783;SDS011;24531;45.502;12.238;2022-07-22T00:23:28;7.80;;;4.45;;
38783;SDS011;24531;45.502;12.238;2022-07-22T00:25:54;6.20;;;4.55;;
38783;SDS011;24531;45.502;12.238;2022-07-22T00:28:20;7.38;;;4.80;;
38783;SDS011;24531;45.502;12.238;2022-07-22T00:30:45;7.78;;;4.68;;
38783;SDS011;24531;45.502;12.238;2022-07-22T00:33:11;7.55;;;4.90;;
38783;SDS011;24531;45.502;12.238;2022-07-22T00:35:36;9.98;;;5.13;;
38783;SDS011;24531;45.502;12.238;2022-07-22T00:38:02;11.52;;;4.47;;
38783;SDS011;24531;45.502;12.238;2022-07-22T00:40:28;11.30;;;5.70;;
38783;SDS011;24531;45.502;12.238;2022-07-22T00:42:53;8.82;;;5.45;;
38783;SDS011;24531;45.502;12.238;2022-07-22T00:45:19;6.13;;;5.07;;
38783;SDS011;24531;45.502;12.238;2022-07-22T00:47:45;8.27;;;5.70;;
38783;SDS011;24531;45.502;12.238;2022-07-22T00:50:11;7.53;;;5.13;;
38783;SDS011;24531;45.502;12.238;2022-07-22T00:52:40;12.65;;;5.68;;
38783;SDS011;24531;45.502;12.238;2022-07-22T00:55:06;9.82;;;5.22;;
38783;SDS011;24531;45.502;12.238;2022-07-22T00:57:34;8.07;;;5.85;;
38783;SDS011;24531;45.502;12.238;2022-07-22T01:00:00;11.73;;;6.10;;
38783;SDS011;24531;45.502;12.238;2022-07-22T01:02:26;10.38;;;5.25;;
38783;SDS011;24531;45.502;12.238;2022-07-22T01:04:51;9.40;;;6.13;;
38783;SDS011;24531;45.502;12.238;2022-07-22T01:07:17;8.80;;;6.30;;
38783;SDS011;24531;45.502;12.238;2022-07-22T01:09:43;10.43;;;5.68;;
38783;SDS011;24531;45.502;12.238;2022-07-22T01:12:09;9.38;;;5.60;;
38783;SDS011;24531;45.502;12.238;2022-07-22T01:14:35;8.75;;;5.72;;
38783;SDS011;24531;45.502;12.238;2022-07-22T01:17:01;11.35;;;4.95;;
38783;SDS011;24531;45.502;12.238;2022-07-22T01:19:27;7.25;;;6.05;;
38783;SDS011;24531;45.502;12.238;2022-07-22T01:21:53;12.15;;;6.10;;
38783;SDS011;24531;45.502;12.238;2022-07-22T01:24:19;9.35;;;6.05;;
38783;SDS011;24531;45.502;12.238;2022-07-22T01:26:44;9.23;;;6.13;;
38783;SDS011;24531;45.502;12.238;2022-07-22T01:29:10;9.95;;;6.57;;
38783;SDS011;24531;45.502;12.238;2022-07-22T01:31:36;8.98;;;6.32;;
38783;SDS011;24531;45.502;12.238;2022-07-22T01:34:01;8.93;;;5.93;;
38783;SDS011;24531;45.502;12.238;2022-07-22T01:36:27;8.13;;;6.15;;
38783;SDS011;24531;45.502;12.238;2022-07-22T01:38:53;8.38;;;6.05;;
38783;SDS011;24531;45.502;12.238;2022-07-22T01:41:19;7.70;;;6.15;;
38783;SDS011;24531;45.502;12.238;2022-07-22T01:43:45;11.57;;;6.10;;
38783;SDS011;24531;45.502;12.238;2022-07-22T01:46:10;14.20;;;5.85;;
38783;SDS011;24531;45.502;12.238;2022-07-22T01:48:36;13.90;;;6.70;;
38783;SDS011;24531;45.502;12.238;2022-07-22T01:51:02;8.93;;;6.45;;
38783;SDS011;24531;45.502;12.238;2022-07-22T01:53:28;9.82;;;6.20;;
38783;SDS011;24531;45.502;12.238;2022-07-22T01:55:54;9.13;;;5.95;;
38783;SDS011;24531;45.502;12.238;2022-07-22T01:58:19;9.80;;;6.43;;
38783;SDS011;24531;45.502;12.238;2022-07-22T02:00:45;11.23;;;5.88;;
38783;SDS011;24531;45.502;12.238;2022-07-22T02:03:11;8.77;;;5.57;;
38783;SDS011;24531;45.502;12.238;2022-07-22T02:05:37;13.90;;;6.10;;
38783;SDS011;24531;45.502;12.238;2022-07-22T02:08:05;11.82;;;6.10;;
38783;SDS011;24531;45.502;12.238;2022-07-22T02:10:33;16.15;;;7.10;;
38783;SDS011;24531;45.502;12.238;2022-07-22T02:12:59;10.02;;;6.07;;
38783;SDS011;24531;45.502;12.238;2022-07-22T02:15:26;7.93;;;6.05;;
38783;SDS011;24531;45.502;12.238;2022-07-22T02:17:52;8.50;;;5.78;;
38783;SDS011;24531;45.502;12.238;2022-07-22T02:20:18;8.65;;;6.13;;
38783;SDS011;24531;45.502;12.238;2022-07-22T02:22:44;18.58;;;6.03;;
38783;SDS011;24531;45.502;12.238;2022-07-22T02:25:10;12.45;;;6.45;;
38783;SDS011;24531;45.502;12.238;2022-07-22T02:27:36;9.90;;;6.28;;
38783;SDS011;24531;45.502;12.238;2022-07-22T02:30:03;8.20;;;5.60;;
38783;SDS011;24531;45.502;12.238;2022-07-22T02:32:30;12.35;;;6.60;;
38783;SDS011;24531;45.502;12.238;2022-07-22T02:34:56;10.80;;;6.45;;
38783;SDS011;24531;45.502;12.238;2022-07-22T02:37:22;12.15;;;6.47;;
38783;SDS011;24531;45.502;12.238;2022-07-22T02:39:48;9.57;;;6.35;;
38783;SDS011;24531;45.502;12.238;2022-07-22T02:42:13;9.45;;;6.82;;
38783;SDS011;24531;45.502;12.238;2022-07-22T02:44:39;9.57;;;6.95;;
38783;SDS011;24531;45.502;12.238;2022-07-22T02:47:05;10.90;;;7.45;;
38783;SDS011;24531;45.502;12.238;2022-07-22T02:49:31;9.07;;;6.35;;
38783;SDS011;24531;45.502;12.238;2022-07-22T02:51:58;10.38;;;6.97;;
38783;SDS011;24531;45.502;12.238;2022-07-22T02:54:23;13.30;;;6.45;;
38783;SDS011;24531;45.502;12.238;2022-07-22T02:56:49;8.77;;;6.03;;
38783;SDS011;24531;45.502;12.238;2022-07-22T02:59:15;13.13;;;6.15;;
38783;SDS011;24531;45.502;12.238;2022-07-22T03:01:40;12.00;;;6.93;;
38783;SDS011;24531;45.502;12.238;2022-07-22T03:04:09;16.17;;;6.28;;
38783;SDS011;24531;45.502;12.238;2022-07-22T03:06:34;8.13;;;6.35;;
38783;SDS011;24531;45.502;12.238;2022-07-22T03:09:00;8.40;;;6.13;;
38783;SDS011;24531;45.502;12.238;2022-07-22T03:11:26;10.80;;;6.82;;
38783;SDS011;24531;45.502;12.238;2022-07-22T03:13:51;8.80;;;6.85;;
38783;SDS011;24531;45.502;12.238;2022-07-22T03:16:17;10.00;;;6.38;;
38783;SDS011;24531;45.502;12.238;2022-07-22T03:18:43;13.05;;;6.35;;
38783;SDS011;24531;45.502;12.238;2022-07-22T03:21:09;10.00;;;6.22;;
38783;SDS011;24531;45.502;12.238;2022-07-22T03:23:34;8.32;;;6.63;;
38783;SDS011;24531;45.502;12.238;2022-07-22T03:26:00;10.50;;;6.75;;
38783;SDS011;24531;45.502;12.238;2022-07-22T03:28:26;14.48;;;6.38;;
38783;SDS011;24531;45.502;12.238;2022-07-22T03:30:52;16.73;;;6.20;;
38783;SDS011;24531;45.502;12.238;2022-07-22T03:33:18;9.30;;;5.70;;
38783;SDS011;24531;45.502;12.238;2022-07-22T03:35:43;11.43;;;6.72;;
38783;SDS011;24531;45.502;12.238;2022-07-22T03:38:09;15.40;;;5.88;;
38783;SDS011;24531;45.502;12.238;2022-07-22T03:40:35;9.70;;;6.30;;
38783;SDS011;24531;45.502;12.238;2022-07-22T03:43:00;9.60;;;6.78;;
38783;SDS011;24531;45.502;12.238;2022-07-22T03:45:26;8.52;;;6.30;;
38783;SDS011;24531;45.502;12.238;2022-07-22T03:47:52;7.32;;;5.75;;
38783;SDS011;24531;45.502;12.238;2022-07-22T03:50:19;9.73;;;6.70;;
38783;SDS011;24531;45.502;12.238;2022-07-22T03:52:45;10.55;;;6.43;;
38783;SDS011;24531;45.502;12.238;2022-07-22T03:55:11;9.48;;;5.90;;
38783;SDS011;24531;45.502;12.238;2022-07-22T03:57:36;11.18;;;7.03;;
38783;SDS011;24531;45.502;12.238;2022-07-22T04:00:03;12.25;;;6.63;;
38783;SDS011;24531;45.502;12.238;2022-07-22T04:02:30;9.80;;;5.78;;
38783;SDS011;24531;45.502;12.238;2022-07-22T04:04:56;9.63;;;7.43;;
38783;SDS011;24531;45.502;12.238;2022-07-22T04:07:21;11.32;;;6.50;;
38783;SDS011;24531;45.502;12.238;2022-07-22T04:09:47;12.75;;;6.68;;
38783;SDS011;24531;45.502;12.238;2022-07-22T04:12:13;12.15;;;7.35;;
38783;SDS011;24531;45.502;12.238;2022-07-22T04:14:38;18.27;;;6.55;;
38783;SDS011;24531;45.502;12.238;2022-07-22T04:17:04;16.83;;;6.32;;
38783;SDS011;24531;45.502;12.238;2022-07-22T04:19:29;10.77;;;6.43;;
38783;SDS011;24531;45.502;12.238;2022-07-22T04:21:55;9.27;;;6.32;;
38783;SDS011;24531;45.502;12.238;2022-07-22T04:24:21;8.65;;;6.28;;
38783;SDS011;24531;45.502;12.238;2022-07-22T04:26:46;10.45;;;6.18;;
38783;SDS011;24531;45.502;12.238;2022-07-22T04:29:12;13.10;;;7.28;;
38783;SDS011;24531;45.502;12.238;2022-07-22T04:31:38;8.48;;;5.93;;
38783;SDS011;24531;45.502;12.238;2022-07-22T04:34:03;12.13;;;6.63;;
38783;SDS011;24531;45.502;12.238;2022-07-22T04:36:29;11.43;;;5.97;;
38783;SDS011;24531;45.502;12.238;2022-07-22T04:38:55;9.48;;;6.65;;
38783;SDS011;24531;45.502;12.238;2022-07-22T04:41:20;10.95;;;6.00;;
38783;SDS011;24531;45.502;12.238;2022-07-22T04:43:46;15.27;;;6.75;;
38783;SDS011;24531;45.502;12.238;2022-07-22T04:46:13;13.98;;;6.45;;
38783;SDS011;24531;45.502;12.238;2022-07-22T04:48:38;10.25;;;5.82;;
38783;SDS011;24531;45.502;12.238;2022-07-22T04:51:07;16.92;;;6.40;;
38783;SDS011;24531;45.502;12.238;2022-07-22T04:53:35;9.30;;;6.43;;
38783;SDS011;24531;45.502;12.238;2022-07-22T04:56:01;13.82;;;7.22;;
38783;SDS011;24531;45.502;12.238;2022-07-22T04:58:26;11.85;;;6.35;;
38783;SDS011;24531;45.502;12.238;2022-07-22T05:00:52;18.30;;;7.47;;
38783;SDS011;24531;45.502;12.238;2022-07-22T05:03:18;14.27;;;7.25;;
38783;SDS011;24531;45.502;12.238;2022-07-22T05:05:43;14.25;;;7.93;;
38783;SDS011;24531;45.502;12.238;2022-07-22T05:08:13;11.45;;;7.15;;
38783;SDS011;24531;45.502;12.238;2022-07-22T05:10:39;13.20;;;7.90;;
38783;SDS011;24531;45.502;12.238;2022-07-22T05:13:05;16.55;;;7.70;;
38783;SDS011;24531;45.502;12.238;2022-07-22T05:15:30;17.48;;;8.13;;
38783;SDS011;24531;45.502;12.238;2022-07-22T05:17:56;13.20;;;8.15;;
38783;SDS011;24531;45.502;12.238;2022-07-22T05:20:22;12.50;;;8.20;;
38783;SDS011;24531;45.502;12.238;2022-07-22T05:22:47;15.38;;;9.30;;
38783;SDS011;24531;45.502;12.238;2022-07-22T05:25:13;16.15;;;9.18;;
38783;SDS011;24531;45.502;12.238;2022-07-22T05:27:43;14.32;;;8.75;;
38783;SDS011;24531;45.502;12.238;2022-07-22T05:30:15;16.02;;;8.48;;
38783;SDS011;24531;45.502;12.238;2022-07-22T05:32:40;17.33;;;9.32;;
38783;SDS011;24531;45.502;12.238;2022-07-22T05:35:06;9.68;;;8.18;;
38783;SDS011;24531;45.502;12.238;2022-07-22T05:37:35;11.88;;;9.15;;
38783;SDS011;24531;45.502;12.238;2022-07-22T05:40:00;12.90;;;8.90;;
38783;SDS011;24531;45.502;12.238;2022-07-22T05:42:26;14.93;;;10.15;;
38783;SDS011;24531;45.502;12.238;2022-07-22T05:44:52;19.65;;;9.82;;
38783;SDS011;24531;45.502;12.238;2022-07-22T05:47:18;19.60;;;9.43;;
38783;SDS011;24531;45.502;12.238;2022-07-22T05:49:43;15.95;;;9.27;;
38783;SDS011;24531;45.502;12.238;2022-07-22T05:52:09;19.75;;;8.82;;
38783;SDS011;24531;45.502;12.238;2022-07-22T05:54:34;14.80;;;8.55;;
38783;SDS011;24531;45.502;12.238;2022-07-22T05:57:00;15.57;;;8.55;;
38783;SDS011;24531;45.502;12.238;2022-07-22T05:59:26;16.30;;;9.90;;
38783;SDS011;24531;45.502;12.238;2022-07-22T06:01:51;18.60;;;9.73;;
38783;SDS011;24531;45.502;12.238;2022-07-22T06:04:17;16.00;;;10.00;;
38783;SDS011;24531;45.502;12.238;2022-07-22T06:06:43;12.30;;;9.38;;
38783;SDS011;24531;45.502;12.238;2022-07-22T06:09:08;12.68;;;9.60;;
38783;SDS011;24531;45.502;12.238;2022-07-22T06:11:34;17.23;;;9.68;;
38783;SDS011;24531;45.502;12.238;2022-07-22T06:14:03;16.30;;;9.45;;
38783;SDS011;24531;45.502;12.238;2022-07-22T06:16:29;18.33;;;9.57;;
38783;SDS011;24531;45.502;12.238;2022-07-22T06:18:54;15.35;;;9.50;;
38783;SDS011;24531;45.502;12.238;2022-07-22T06:21:20;20.23;;;9.20;;
38783;SDS011;24531;45.502;12.238;2022-07-22T06:23:46;18.60;;;9.05;;
38783;SDS011;24531;45.502;12.238;2022-07-22T06:26:11;15.88;;;8.85;;
38783;SDS011;24531;45.502;12.238;2022-07-22T06:28:37;16.70;;;8.70;;
38783;SDS011;24531;45.502;12.238;2022-07-22T06:31:03;14.57;;;9.02;;
38783;SDS011;24531;45.502;12.238;2022-07-22T06:33:29;16.95;;;8.95;;
38783;SDS011;24531;45.502;12.238;2022-07-22T06:35:55;10.82;;;8.63;;
38783;SDS011;24531;45.502;12.238;2022-07-22T06:38:21;19.45;;;8.68;;
38783;SDS011;24531;45.502;12.238;2022-07-22T06:40:49;20.52;;;8.32;;
38783;SDS011;24531;45.502;12.238;2022-07-22T06:43:15;17.80;;;9.43;;
38783;SDS011;24531;45.502;12.238;2022-07-22T06:45:43;17.55;;;9.20;;
38783;SDS011;24531;45.502;12.238;2022-07-22T06:48:09;15.55;;;9.05;;
38783;SDS011;24531;45.502;12.238;2022-07-22T06:50:34;11.85;;;8.60;;
38783;SDS011;24531;45.502;12.238;2022-07-22T06:53:00;12.80;;;9.48;;
38783;SDS011;24531;45.502;12.238;2022-07-22T06:55:26;15.35;;;7.95;;
38783;SDS011;24531;45.502;12.238;2022-07-22T06:57:51;14.73;;;9.00;;
38783;SDS011;24531;45.502;12.238;2022-07-22T07:00:17;16.00;;;8.82;;
38783;SDS011;24531;45.502;12.238;2022-07-22T07:02:43;13.93;;;8.30;;
38783;SDS011;24531;45.502;12.238;2022-07-22T07:05:12;15.10;;;9.63;;
38783;SDS011;24531;45.502;12.238;2022-07-22T07:07:38;9.57;;;8.25;;
38783;SDS011;24531;45.502;12.238;2022-07-22T07:10:03;17.23;;;8.48;;
38783;SDS011;24531;45.502;12.238;2022-07-22T07:12:29;12.70;;;8.43;;
38783;SDS011;24531;45.502;12.238;2022-07-22T07:14:55;14.63;;;8.77;;
38783;SDS011;24531;45.502;12.238;2022-07-22T07:17:21;15.35;;;9.25;;
38783;SDS011;24531;45.502;12.238;2022-07-22T07:19:46;10.77;;;7.75;;
38783;SDS011;24531;45.502;12.238;2022-07-22T07:22:12;14.27;;;7.90;;
38783;SDS011;24531;45.502;12.238;2022-07-22T07:24:38;11.43;;;7.32;;
38783;SDS011;24531;45.502;12.238;2022-07-22T07:27:03;11.18;;;7.75;;
38783;SDS011;24531;45.502;12.238;2022-07-22T07:29:29;10.48;;;7.18;;
38783;SDS011;24531;45.502;12.238;2022-07-22T07:31:55;11.88;;;7.20;;
38783;SDS011;24531;45.502;12.238;2022-07-22T07:34:23;11.30;;;6.93;;
38783;SDS011;24531;45.502;12.238;2022-07-22T07:36:52;10.98;;;7.25;;
38783;SDS011;24531;45.502;12.238;2022-07-22T07:39:18;11.55;;;7.65;;
38783;SDS011;24531;45.502;12.238;2022-07-22T07:41:43;21.30;;;7.88;;
38783;SDS011;24531;45.502;12.238;2022-07-22T07:44:09;10.77;;;7.80;;
38783;SDS011;24531;45.502;12.238;2022-07-22T07:46:35;12.25;;;7.60;;
38783;SDS011;24531;45.502;12.238;2022-07-22T07:49:01;11.07;;;7.93;;
38783;SDS011;24531;45.502;12.238;2022-07-22T07:51:26;15.43;;;8.68;;
38783;SDS011;24531;45.502;12.238;2022-07-22T07:54:17;11.20;;;7.82;;
38783;SDS011;24531;45.502;12.238;2022-07-22T07:56:43;13.05;;;8.93;;
38783;SDS011;24531;45.502;12.238;2022-07-22T07:59:08;14.45;;;8.10;;
38783;SDS011;24531;45.502;12.238;2022-07-22T08:01:36;13.50;;;8.75;;
38783;SDS011;24531;45.502;12.238;2022-07-22T08:04:02;13.07;;;8.55;;
38783;SDS011;24531;45.502;12.238;2022-07-22T08:06:28;18.05;;;8.00;;
38783;SDS011;24531;45.502;12.238;2022-07-22T08:08:53;9.38;;;7.50;;
38783;SDS011;24531;45.502;12.238;2022-07-22T08:11:19;13.68;;;8.02;;
38783;SDS011;24531;45.502;12.238;2022-07-22T08:13:45;10.30;;;7.53;;
38783;SDS011;24531;45.502;12.238;2022-07-22T08:16:13;12.43;;;7.22;;
38783;SDS011;24531;45.502;12.238;2022-07-22T08:18:39;11.50;;;7.50;;
38783;SDS011;24531;45.502;12.238;2022-07-22T08:21:08;10.88;;;7.75;;
38783;SDS011;24531;45.502;12.238;2022-07-22T08:23:34;11.27;;;8.60;;
38783;SDS011;24531;45.502;12.238;2022-07-22T08:25:59;14.50;;;7.07;;
38783;SDS011;24531;45.502;12.238;2022-07-22T08:28:25;10.80;;;7.15;;
38783;SDS011;24531;45.502;12.238;2022-07-22T08:30:51;8.38;;;6.20;;
38783;SDS011;24531;45.502;12.238;2022-07-22T08:33:17;14.02;;;6.20;;
38783;SDS011;24531;45.502;12.238;2022-07-22T08:35:43;11.50;;;6.07;;
38783;SDS011;24531;45.502;12.238;2022-07-22T08:38:15;10.55;;;7.03;;
38783;SDS011;24531;45.502;12.238;2022-07-22T08:40:41;9.02;;;6.20;;
38783;SDS011;24531;45.502;12.238;2022-07-22T08:43:06;9.60;;;6.40;;
38783;SDS011;24531;45.502;12.238;2022-07-22T08:45:32;11.32;;;6.15;;
38783;SDS011;24531;45.502;12.238;2022-07-22T08:48:10;9.35;;;6.63;;
38783;SDS011;24531;45.502;12.238;2022-07-22T08:50:36;8.00;;;6.40;;
38783;SDS011;24531;45.502;12.238;2022-07-22T08:53:02;15.70;;;7.47;;
38783;SDS011;24531;45.502;12.238;2022-07-22T08:55:27;13.30;;;6.55;;
38783;SDS011;24531;45.502;12.238;2022-07-22T08:57:53;8.65;;;6.50;;
38783;SDS011;24531;45.502;12.238;2022-07-22T09:00:19;13.55;;;5.85;;
38783;SDS011;24531;45.502;12.238;2022-07-22T09:02:46;10.98;;;6.03;;
38783;SDS011;24531;45.502;12.238;2022-07-22T09:05:13;7.60;;;5.65;;
38783;SDS011;24531;45.502;12.238;2022-07-22T09:07:49;12.15;;;5.78;;
38783;SDS011;24531;45.502;12.238;2022-07-22T09:10:16;8.00;;;5.90;;
38783;SDS011;24531;45.502;12.238;2022-07-22T09:15:31;7.32;;;4.90;;
38783;SDS011;24531;45.502;12.238;2022-07-22T09:18:01;12.75;;;4.88;;
38783;SDS011;24531;45.502;12.238;2022-07-22T09:20:39;9.63;;;4.65;;
38783;SDS011;24531;45.502;12.238;2022-07-22T09:23:18;7.47;;;4.45;;
38783;SDS011;24531;45.502;12.238;2022-07-22T09:25:49;8.48;;;4.18;;
38783;SDS011;24531;45.502;12.238;2022-07-22T09:28:17;5.47;;;4.68;;
38783;SDS011;24531;45.502;12.238;2022-07-22T09:30:51;5.78;;;3.65;;
38783;SDS011;24531;45.502;12.238;2022-07-22T09:33:18;10.13;;;4.25;;
38783;SDS011;24531;45.502;12.238;2022-07-22T09:35:45;7.38;;;3.90;;
38783;SDS011;24531;45.502;12.238;2022-07-22T09:38:12;6.55;;;3.28;;
38783;SDS011;24531;45.502;12.238;2022-07-22T09:43:26;5.10;;;3.65;;
38783;SDS011;24531;45.502;12.238;2022-07-22T09:45:58;7.88;;;3.70;;
38783;SDS011;24531;45.502;12.238;2022-07-22T09:48:34;5.35;;;3.83;;
38783;SDS011;24531;45.502;12.238;2022-07-22T09:51:05;6.90;;;4.35;;
38783;SDS011;24531;45.502;12.238;2022-07-22T09:53:33;8.02;;;3.70;;
38783;SDS011;24531;45.502;12.238;2022-07-22T10:02:09;4.32;;;3.85;;
38783;SDS011;24531;45.502;12.238;2022-07-22T10:04:40;4.28;;;3.90;;
38783;SDS011;24531;45.502;12.238;2022-07-22T10:07:13;9.73;;;3.85;;
38783;SDS011;24531;45.502;12.238;2022-07-22T10:09:39;7.82;;;4.07;;
38783;SDS011;24531;45.502;12.238;2022-07-22T10:12:06;9.02;;;3.70;;
38783;SDS011;24531;45.502;12.238;2022-07-22T10:14:32;7.53;;;4.10;;
38783;SDS011;24531;45.502;12.238;2022-07-22T10:16:59;6.30;;;3.78;;
38783;SDS011;24531;45.502;12.238;2022-07-22T10:19:26;6.43;;;4.45;;
38783;SDS011;24531;45.502;12.238;2022-07-22T10:21:54;7.43;;;3.78;;
38783;SDS011;24531;45.502;12.238;2022-07-22T10:24:20;8.63;;;4.47;;
38783;SDS011;24531;45.502;12.238;2022-07-22T10:26:49;8.52;;;4.90;;
38783;SDS011;24531;45.502;12.238;2022-07-22T10:40:31;6.45;;;3.83;;
38783;SDS011;24531;45.502;12.238;2022-07-22T10:43:17;11.13;;;3.97;;
38783;SDS011;24531;45.502;12.238;2022-07-22T10:46:06;9.80;;;4.38;;
38783;SDS011;24531;45.502;12.238;2022-07-22T10:58:46;6.90;;;3.50;;
38783;SDS011;24531;45.502;12.238;2022-07-22T11:01:17;6.68;;;3.72;;
38783;SDS011;24531;45.502;12.238;2022-07-22T11:03:48;6.03;;;3.40;;
38783;SDS011;24531;45.502;12.238;2022-07-22T11:09:07;8.40;;;3.58;;
38783;SDS011;24531;45.502;12.238;2022-07-22T11:14:18;4.22;;;3.38;;
38783;SDS011;24531;45.502;12.238;2022-07-22T11:16:49;6.90;;;3.55;;
38783;SDS011;24531;45.502;12.238;2022-07-22T11:19:24;4.70;;;3.30;;
38783;SDS011;24531;45.502;12.238;2022-07-22T11:22:04;5.68;;;3.28;;
38783;SDS011;24531;45.502;12.238;2022-07-22T11:24:40;5.32;;;2.97;;
38783;SDS011;24531;45.502;12.238;2022-07-22T11:27:25;7.13;;;3.45;;
38783;SDS011;24531;45.502;12.238;2022-07-22T11:29:56;3.85;;;3.40;;
38783;SDS011;24531;45.502;12.238;2022-07-22T11:32:25;5.70;;;3.03;;
38783;SDS011;24531;45.502;12.238;2022-07-22T11:34:55;6.30;;;3.22;;
38783;SDS011;24531;45.502;12.238;2022-07-22T11:37:21;4.28;;;3.30;;
38783;SDS011;24531;45.502;12.238;2022-07-22T11:39:58;4.32;;;3.22;;
38783;SDS011;24531;45.502;12.238;2022-07-22T11:42:29;4.10;;;3.08;;
38783;SDS011;24531;45.502;12.238;2022-07-22T11:44:57;4.55;;;3.70;;
38783;SDS011;24531;45.502;12.238;2022-07-22T11:47:23;4.70;;;3.40;;
38783;SDS011;24531;45.502;12.238;2022-07-22T11:49:48;8.57;;;3.75;;
38783;SDS011;24531;45.502;12.238;2022-07-22T11:52:14;6.05;;;3.25;;
38783;SDS011;24531;45.502;12.238;2022-07-22T11:54:41;5.25;;;3.33;;
38783;SDS011;24531;45.502;12.238;2022-07-22T11:57:07;6.03;;;3.10;;
38783;SDS011;24531;45.502;12.238;2022-07-22T11:59:34;5.90;;;3.10;;
38783;SDS011;24531;45.502;12.238;2022-07-22T12:02:00;3.88;;;3.10;;
38783;SDS011;24531;45.502;12.238;2022-07-22T12:04:27;3.80;;;2.50;;
38783;SDS011;24531;45.502;12.238;2022-07-22T12:06:54;5.57;;;3.13;;
38783;SDS011;24531;45.502;12.238;2022-07-22T12:09:23;4.00;;;3.10;;
38783;SDS011;24531;45.502;12.238;2022-07-22T12:11:51;5.65;;;2.83;;
38783;SDS011;24531;45.502;12.238;2022-07-22T12:14:21;4.15;;;3.08;;
38783;SDS011;24531;45.502;12.238;2022-07-22T12:19:27;5.45;;;2.95;;
38783;SDS011;24531;45.502;12.238;2022-07-22T12:22:12;3.50;;;3.13;;
38783;SDS011;24531;45.502;12.238;2022-07-22T12:24:45;5.65;;;3.25;;
38783;SDS011;24531;45.502;12.238;2022-07-22T12:27:25;7.38;;;3.40;;
38783;SDS011;24531;45.502;12.238;2022-07-22T12:29:51;9.88;;;3.40;;
38783;SDS011;24531;45.502;12.238;2022-07-22T12:32:18;4.78;;;3.67;;
38783;SDS011;24531;45.502;12.238;2022-07-22T12:37:42;4.60;;;3.17;;
38783;SDS011;24531;45.502;12.238;2022-07-22T12:40:17;4.78;;;3.45;;
38783;SDS011;24531;45.502;12.238;2022-07-22T12:43:00;3.78;;;3.08;;
38783;SDS011;24531;45.502;12.238;2022-07-22T12:45:41;3.35;;;2.67;;
38783;SDS011;24531;45.502;12.238;2022-07-22T12:48:08;4.65;;;3.42;;
38783;SDS011;24531;45.502;12.238;2022-07-22T12:53:54;4.28;;;2.67;;
38783;SDS011;24531;45.502;12.238;2022-07-22T12:56:19;4.97;;;3.38;;
38783;SDS011;24531;45.502;12.238;2022-07-22T12:58:46;4.53;;;2.92;;
38783;SDS011;24531;45.502;12.238;2022-07-22T13:01:11;5.20;;;2.80;;
38783;SDS011;24531;45.502;12.238;2022-07-22T13:03:37;6.93;;;2.70;;
38783;SDS011;24531;45.502;12.238;2022-07-22T13:06:03;2.95;;;2.28;;
38783;SDS011;24531;45.502;12.238;2022-07-22T13:08:30;3.75;;;2.75;;
38783;SDS011;24531;45.502;12.238;2022-07-22T13:10:56;5.22;;;3.45;;
38783;SDS011;24531;45.502;12.238;2022-07-22T13:13:23;4.15;;;3.60;;
38783;SDS011;24531;45.502;12.238;2022-07-22T13:15:49;5.18;;;3.08;;
38783;SDS011;24531;45.502;12.238;2022-07-22T13:18:15;5.95;;;3.65;;
38783;SDS011;24531;45.502;12.238;2022-07-22T13:20:41;4.85;;;2.67;;
38783;SDS011;24531;45.502;12.238;2022-07-22T13:23:08;4.53;;;2.85;;
38783;SDS011;24531;45.502;12.238;2022-07-22T13:25:34;4.13;;;3.47;;
38783;SDS011;24531;45.502;12.238;2022-07-22T13:28:00;5.45;;;3.33;;
38783;SDS011;24531;45.502;12.238;2022-07-22T13:30:26;5.13;;;4.32;;
38783;SDS011;24531;45.502;12.238;2022-07-22T13:32:52;5.50;;;4.32;;
38783;SDS011;24531;45.502;12.238;2022-07-22T13:35:18;3.97;;;3.20;;
38783;SDS011;24531;45.502;12.238;2022-07-22T13:37:44;4.03;;;3.40;;
38783;SDS011;24531;45.502;12.238;2022-07-22T13:40:10;4.03;;;3.40;;
38783;SDS011;24531;45.502;12.238;2022-07-22T13:42:36;52.08;;;5.57;;
38783;SDS011;24531;45.502;12.238;2022-07-22T13:45:05;4.78;;;2.78;;
38783;SDS011;24531;45.502;12.238;2022-07-22T13:47:32;5.53;;;3.20;;
38783;SDS011;24531;45.502;12.238;2022-07-22T13:50:04;4.82;;;3.50;;
38783;SDS011;24531;45.502;12.238;2022-07-22T13:52:29;6.35;;;3.45;;
38783;SDS011;24531;45.502;12.238;2022-07-22T13:54:55;5.55;;;4.53;;
38783;SDS011;24531;45.502;12.238;2022-07-22T13:57:21;7.00;;;4.25;;
38783;SDS011;24531;45.502;12.238;2022-07-22T13:59:47;4.78;;;3.22;;
38783;SDS011;24531;45.502;12.238;2022-07-22T14:02:12;5.13;;;3.85;;
38783;SDS011;24531;45.502;12.238;2022-07-22T14:04:38;8.02;;;3.72;;
38783;SDS011;24531;45.502;12.238;2022-07-22T14:07:04;5.50;;;3.20;;
38783;SDS011;24531;45.502;12.238;2022-07-22T14:09:29;4.30;;;3.17;;
38783;SDS011;24531;45.502;12.238;2022-07-22T14:11:55;4.05;;;3.15;;
38783;SDS011;24531;45.502;12.238;2022-07-22T14:14:21;3.65;;;2.80;;
38783;SDS011;24531;45.502;12.238;2022-07-22T14:16:47;5.03;;;2.78;;
38783;SDS011;24531;45.502;12.238;2022-07-22T14:19:14;4.30;;;3.33;;
38783;SDS011;24531;45.502;12.238;2022-07-22T14:21:41;5.13;;;2.80;;
38783;SDS011;24531;45.502;12.238;2022-07-22T14:24:09;5.15;;;3.17;;
38783;SDS011;24531;45.502;12.238;2022-07-22T14:26:35;4.07;;;3.45;;
38783;SDS011;24531;45.502;12.238;2022-07-22T14:29:02;5.82;;;3.42;;
38783;SDS011;24531;45.502;12.238;2022-07-22T14:31:28;5.38;;;2.70;;
38783;SDS011;24531;45.502;12.238;2022-07-22T14:33:55;4.40;;;3.13;;
38783;SDS011;24531;45.502;12.238;2022-07-22T14:36:21;5.93;;;3.20;;
38783;SDS011;24531;45.502;12.238;2022-07-22T14:38:47;6.07;;;2.97;;
38783;SDS011;24531;45.502;12.238;2022-07-22T14:41:15;5.47;;;3.28;;
38783;SDS011;24531;45.502;12.238;2022-07-22T14:43:41;4.15;;;3.08;;
38783;SDS011;24531;45.502;12.238;2022-07-22T14:46:07;6.65;;;3.47;;
38783;SDS011;24531;45.502;12.238;2022-07-22T14:48:34;4.68;;;2.85;;
38783;SDS011;24531;45.502;12.238;2022-07-22T14:51:01;4.50;;;3.38;;
38783;SDS011;24531;45.502;12.238;2022-07-22T14:53:27;3.85;;;3.45;;
38783;SDS011;24531;45.502;12.238;2022-07-22T14:55:52;4.03;;;3.50;;
38783;SDS011;24531;45.502;12.238;2022-07-22T14:58:18;5.75;;;4.03;;
38783;SDS011;24531;45.502;12.238;2022-07-22T15:00:44;6.25;;;4.00;;
38783;SDS011;24531;45.502;12.238;2022-07-22T15:03:10;4.38;;;3.78;;
38783;SDS011;24531;45.502;12.238;2022-07-22T15:05:35;5.57;;;3.78;;
38783;SDS011;24531;45.502;12.238;2022-07-22T15:08:04;7.53;;;5.05;;
38783;SDS011;24531;45.502;12.238;2022-07-22T15:10:30;6.63;;;5.07;;
38783;SDS011;24531;45.502;12.238;2022-07-22T15:12:55;10.85;;;5.22;;
38783;SDS011;24531;45.502;12.238;2022-07-22T15:15:21;8.00;;;4.65;;